sensor_id;sensor_type;location;lat;lon;timestamp;pressure;altitude;pressure_sealevel;temperature;humidity
51603;BME280;37954;51.980;5.850;2023-08-07T00:01:57;100843.84;;;14.31;100.00
51603;BME280;37954;51.980;5.850;2023-08-07T00:06:09;100837.63;;;14.30;100.00
51603;BME280;37954;51.980;5.850;2023-08-07T00:10:21;100842.22;;;14.29;100.00
51603;BME280;37954;51.980;5.850;2023-08-07T00:14:32;100850.91;;;14.32;100.00
51603;BME280;37954;51.980;5.850;2023-08-07T00:18:44;100854.09;;;14.28;100.00
51603;BME280;37954;51.980;5.850;2023-08-07T00:22:56;100854.09;;;14.28;100.00
51603;BME280;37954;51.980;5.850;2023-08-07T00:27:08;100850.47;;;14.23;100.00
51603;BME280;37954;51.980;5.850;2023-08-07T00:31:21;100867.34;;;14.30;100.00
51603;BME280;37954;51.980;5.850;2023-08-07T00:35:33;100866.44;;;14.24;100.00
51603;BME280;37954;51.980;5.850;2023-08-07T00:39:45;100861.28;;;14.23;100.00
51603;BME280;37954;51.980;5.850;2023-08-07T00:43:56;100853.94;;;14.18;100.00
51603;BME280;37954;51.980;5.850;2023-08-07T00:48:09;100855.47;;;14.14;100.00
51603;BME280;37954;51.980;5.850;2023-08-07T00:52:21;100877.72;;;14.21;100.00
51603;BME280;37954;51.980;5.850;2023-08-07T00:56:33;100868.97;;;14.14;100.00
51603;BME280;37954;51.980;5.850;2023-08-07T01:00:45;100871.44;;;14.16;100.00
51603;BME280;37954;51.980;5.850;2023-08-07T01:04:57;100879.53;;;14.16;100.00
51603;BME280;37954;51.980;5.850;2023-08-07T01:09:09;100878.03;;;14.08;100.00
51603;BME280;37954;51.980;5.850;2023-08-07T01:13:42;100882.25;;;14.16;100.00
51603;BME280;37954;51.980;5.850;2023-08-07T01:17:55;100878.03;;;14.08;100.00
51603;BME280;37954;51.980;5.850;2023-08-07T01:22:11;100884.38;;;14.14;100.00
51603;BME280;37954;51.980;5.850;2023-08-07T01:26:23;100883.44;;;14.08;100.00
51603;BME280;37954;51.980;5.850;2023-08-07T01:30:41;100883.78;;;14.12;100.00
51603;BME280;37954;51.980;5.850;2023-08-07T01:34:54;100884.28;;;14.09;100.00
51603;BME280;37954;51.980;5.850;2023-08-07T01:39:08;100888.03;;;14.08;100.00
51603;BME280;37954;51.980;5.850;2023-08-07T01:43:21;100910.91;;;14.17;100.00
51603;BME280;37954;51.980;5.850;2023-08-07T01:47:32;100903.38;;;14.19;100.00
51603;BME280;37954;51.980;5.850;2023-08-07T01:51:44;100887.78;;;14.09;100.00
51603;BME280;37954;51.980;5.850;2023-08-07T01:55:56;100880.66;;;14.03;100.00
51603;BME280;37954;51.980;5.850;2023-08-07T02:00:08;100906.09;;;14.19;100.00
51603;BME280;37954;51.980;5.850;2023-08-07T02:04:25;100904.75;;;14.21;100.00
51603;BME280;37954;51.980;5.850;2023-08-07T02:08:37;100908.50;;;14.20;100.00
51603;BME280;37954;51.980;5.850;2023-08-07T02:12:49;100912.38;;;14.24;100.00
51603;BME280;37954;51.980;5.850;2023-08-07T02:17:01;100906.16;;;14.24;100.00
51603;BME280;37954;51.980;5.850;2023-08-07T02:21:13;100910.66;;;14.18;100.00
51603;BME280;37954;51.980;5.850;2023-08-07T02:25:24;100908.50;;;14.20;100.00
51603;BME280;37954;51.980;5.850;2023-08-07T02:29:36;100923.19;;;14.24;100.00
51603;BME280;37954;51.980;5.850;2023-08-07T02:33:48;100927.03;;;14.28;100.00
51603;BME280;37954;51.980;5.850;2023-08-07T02:37:59;100922.47;;;14.29;100.00
51603;BME280;37954;51.980;5.850;2023-08-07T02:42:11;100922.56;;;14.34;100.00
51603;BME280;37954;51.980;5.850;2023-08-07T02:46:23;100930.19;;;14.37;100.00
51603;BME280;37954;51.980;5.850;2023-08-07T02:50:35;100931.50;;;14.35;100.00
51603;BME280;37954;51.980;5.850;2023-08-07T02:54:47;100925.25;;;14.34;100.00
51603;BME280;37954;51.980;5.850;2023-08-07T02:58:58;100933.69;;;14.38;100.00
51603;BME280;37954;51.980;5.850;2023-08-07T03:03:10;100920.34;;;14.31;100.00
51603;BME280;37954;51.980;5.850;2023-08-07T03:07:22;100914.59;;;14.27;100.00
51603;BME280;37954;51.980;5.850;2023-08-07T03:11:34;100905.91;;;14.25;100.00
51603;BME280;37954;51.980;5.850;2023-08-07T03:15:46;100917.19;;;14.22;100.00
51603;BME280;37954;51.980;5.850;2023-08-07T03:20:00;100918.03;;;14.23;100.00
51603;BME280;37954;51.980;5.850;2023-08-07T03:24:12;100905.00;;;14.20;100.00
51603;BME280;37954;51.980;5.850;2023-08-07T03:28:24;100910.66;;;14.18;100.00
51603;BME280;37954;51.980;5.850;2023-08-07T03:32:36;100907.16;;;14.18;100.00
51603;BME280;37954;51.980;5.850;2023-08-07T03:36:47;100897.88;;;14.14;100.00
51603;BME280;37954;51.980;5.850;2023-08-07T03:40:59;100896.72;;;14.10;100.00
51603;BME280;37954;51.980;5.850;2023-08-07T03:45:13;100897.88;;;14.14;100.00
51603;BME280;37954;51.980;5.850;2023-08-07T03:49:25;100886.97;;;14.09;100.00
51603;BME280;37954;51.980;5.850;2023-08-07T03:53:38;100897.28;;;14.12;100.00
51603;BME280;37954;51.980;5.850;2023-08-07T03:57:50;100902.88;;;14.22;100.00
51603;BME280;37954;51.980;5.850;2023-08-07T04:02:01;100892.00;;;14.17;100.00
51603;BME280;37954;51.980;5.850;2023-08-07T04:06:14;100888.00;;;14.19;100.00
51603;BME280;37954;51.980;5.850;2023-08-07T04:10:27;100887.06;;;14.14;100.00
51603;BME280;37954;51.980;5.850;2023-08-07T04:14:39;100875.94;;;14.10;100.00
51603;BME280;37954;51.980;5.850;2023-08-07T04:18:51;100888.72;;;14.15;100.00
51603;BME280;37954;51.980;5.850;2023-08-07T04:23:03;100907.97;;;14.18;100.00
51603;BME280;37954;51.980;5.850;2023-08-07T04:27:14;100891.06;;;14.11;100.00
51603;BME280;37954;51.980;5.850;2023-08-07T04:31:26;100914.50;;;14.22;100.00
51603;BME280;37954;51.980;5.850;2023-08-07T04:35:38;100905.50;;;14.17;100.00
51603;BME280;37954;51.980;5.850;2023-08-07T04:39:50;100915.78;;;14.20;100.00
51603;BME280;37954;51.980;5.850;2023-08-07T04:44:01;100913.91;;;14.20;100.00
51603;BME280;37954;51.980;5.850;2023-08-07T04:48:14;100915.56;;;14.21;100.00
51603;BME280;37954;51.980;5.850;2023-08-07T04:52:25;100919.66;;;14.24;100.00
51603;BME280;37954;51.980;5.850;2023-08-07T04:56:37;100910.97;;;14.22;100.00
51603;BME280;37954;51.980;5.850;2023-08-07T05:00:54;100922.59;;;14.22;100.00
51603;BME280;37954;51.980;5.850;2023-08-07T05:05:07;100929.41;;;14.25;100.00
51603;BME280;37954;51.980;5.850;2023-08-07T05:09:19;100933.16;;;14.24;100.00
51603;BME280;37954;51.980;5.850;2023-08-07T05:13:31;100930.94;;;14.21;100.00
51603;BME280;37954;51.980;5.850;2023-08-07T05:17:43;100930.00;;;14.27;100.00
51603;BME280;37954;51.980;5.850;2023-08-07T05:21:55;100937.38;;;14.32;100.00
51603;BME280;37954;51.980;5.850;2023-08-07T05:26:07;100939.03;;;14.33;100.00
51603;BME280;37954;51.980;5.850;2023-08-07T05:30:18;100957.22;;;14.37;100.00
51603;BME280;37954;51.980;5.850;2023-08-07T05:34:30;100965.81;;;14.34;100.00
51603;BME280;37954;51.980;5.850;2023-08-07T05:38:42;100969.91;;;14.37;100.00
51603;BME280;37954;51.980;5.850;2023-08-07T05:42:53;100980.91;;;14.47;100.00
51603;BME280;37954;51.980;5.850;2023-08-07T05:47:06;100987.50;;;14.51;100.00
51603;BME280;37954;51.980;5.850;2023-08-07T05:51:17;100985.69;;;14.56;100.00
51603;BME280;37954;51.980;5.850;2023-08-07T05:55:31;100994.31;;;14.70;100.00
51603;BME280;37954;51.980;5.850;2023-08-07T05:59:43;100983.50;;;14.70;100.00
51603;BME280;37954;51.980;5.850;2023-08-07T06:03:54;100988.50;;;14.78;100.00
51603;BME280;37954;51.980;5.850;2023-08-07T06:08:06;101001.06;;;14.84;100.00
51603;BME280;37954;51.980;5.850;2023-08-07T06:12:18;101000.13;;;14.79;100.00
51603;BME280;37954;51.980;5.850;2023-08-07T06:16:30;101006.47;;;14.84;100.00
51603;BME280;37954;51.980;5.850;2023-08-07T06:20:42;101005.63;;;14.84;100.00
51603;BME280;37954;51.980;5.850;2023-08-07T06:24:54;101028.75;;;14.91;100.00
51603;BME280;37954;51.980;5.850;2023-08-07T06:29:05;101033.19;;;14.97;100.00
51603;BME280;37954;51.980;5.850;2023-08-07T06:33:17;101025.06;;;14.97;100.00
51603;BME280;37954;51.980;5.850;2023-08-07T06:37:29;101034.41;;;15.07;100.00
51603;BME280;37954;51.980;5.850;2023-08-07T06:41:40;101037.69;;;15.25;100.00
51603;BME280;37954;51.980;5.850;2023-08-07T06:45:54;101047.97;;;15.57;100.00
51603;BME280;37954;51.980;5.850;2023-08-07T06:50:06;101034.53;;;16.54;100.00
51603;BME280;37954;51.980;5.850;2023-08-07T06:54:18;101039.31;;;17.33;98.99
51603;BME280;37954;51.980;5.850;2023-08-07T06:58:29;101043.16;;;18.36;95.06
51603;BME280;37954;51.980;5.850;2023-08-07T07:02:41;101056.88;;;18.77;90.73
51603;BME280;37954;51.980;5.850;2023-08-07T07:06:53;101046.19;;;18.55;87.11
51603;BME280;37954;51.980;5.850;2023-08-07T07:11:04;101050.19;;;18.17;85.55
51603;BME280;37954;51.980;5.850;2023-08-07T07:15:16;101057.84;;;18.35;85.23
51603;BME280;37954;51.980;5.850;2023-08-07T07:19:28;101072.66;;;18.65;84.33
51603;BME280;37954;51.980;5.850;2023-08-07T07:23:40;101082.66;;;18.54;83.08
51603;BME280;37954;51.980;5.850;2023-08-07T07:27:51;101090.72;;;18.29;83.13
51603;BME280;37954;51.980;5.850;2023-08-07T07:32:03;101091.47;;;18.09;82.72
51603;BME280;37954;51.980;5.850;2023-08-07T07:36:18;101103.63;;;18.01;82.94
51603;BME280;37954;51.980;5.850;2023-08-07T07:40:31;101101.25;;;18.88;83.43
51603;BME280;37954;51.980;5.850;2023-08-07T07:44:43;101104.00;;;20.64;80.38
51603;BME280;37954;51.980;5.850;2023-08-07T07:48:55;101120.72;;;21.45;73.96
51603;BME280;37954;51.980;5.850;2023-08-07T07:53:08;101121.91;;;20.90;72.40
51603;BME280;37954;51.980;5.850;2023-08-07T07:57:20;101106.75;;;19.79;72.27
51603;BME280;37954;51.980;5.850;2023-08-07T08:01:32;101123.91;;;19.03;73.56
51603;BME280;37954;51.980;5.850;2023-08-07T08:05:43;101130.16;;;18.99;74.11
51603;BME280;37954;51.980;5.850;2023-08-07T08:09:55;101135.53;;;20.31;74.04
51603;BME280;37954;51.980;5.850;2023-08-07T08:14:07;101136.63;;;20.94;70.50
51603;BME280;37954;51.980;5.850;2023-08-07T08:18:19;101145.03;;;21.76;66.76
51603;BME280;37954;51.980;5.850;2023-08-07T08:22:30;101152.16;;;22.96;65.64
51603;BME280;37954;51.980;5.850;2023-08-07T08:26:42;101161.22;;;23.48;61.92
51603;BME280;37954;51.980;5.850;2023-08-07T08:30:54;101170.00;;;23.96;58.72
51603;BME280;37954;51.980;5.850;2023-08-07T08:35:06;101161.53;;;24.25;56.97
51603;BME280;37954;51.980;5.850;2023-08-07T08:39:18;101163.53;;;24.06;55.41
51603;BME280;37954;51.980;5.850;2023-08-07T08:43:35;101171.28;;;23.01;56.67
51603;BME280;37954;51.980;5.850;2023-08-07T08:47:51;101183.78;;;21.54;59.03
51603;BME280;37954;51.980;5.850;2023-08-07T08:52:04;101202.09;;;20.30;62.89
51603;BME280;37954;51.980;5.850;2023-08-07T08:56:16;101194.25;;;19.57;66.84
51603;BME280;37954;51.980;5.850;2023-08-07T09:00:28;101191.50;;;19.22;69.35
51603;BME280;37954;51.980;5.850;2023-08-07T09:04:42;101177.06;;;19.21;70.71
51603;BME280;37954;51.980;5.850;2023-08-07T09:08:55;101190.44;;;19.58;70.83
51603;BME280;37954;51.980;5.850;2023-08-07T09:13:11;101191.75;;;21.01;70.78
51603;BME280;37954;51.980;5.850;2023-08-07T09:17:29;101200.38;;;22.97;66.32
51603;BME280;37954;51.980;5.850;2023-08-07T09:21:42;101193.56;;;23.83;61.15
51603;BME280;37954;51.980;5.850;2023-08-07T09:26:04;101211.78;;;24.94;57.51
51603;BME280;37954;51.980;5.850;2023-08-07T09:30:16;101212.47;;;25.13;53.59
51603;BME280;37954;51.980;5.850;2023-08-07T09:34:30;101212.09;;;24.24;52.88
51603;BME280;37954;51.980;5.850;2023-08-07T09:38:51;101201.31;;;22.87;54.19
51603;BME280;37954;51.980;5.850;2023-08-07T09:43:03;101226.59;;;22.55;56.45
51603;BME280;37954;51.980;5.850;2023-08-07T09:47:17;101223.09;;;22.98;56.39
51603;BME280;37954;51.980;5.850;2023-08-07T09:51:49;101228.63;;;23.35;55.95
51603;BME280;37954;51.980;5.850;2023-08-07T09:56:02;101229.84;;;23.80;54.98
51603;BME280;37954;51.980;5.850;2023-08-07T10:00:16;101238.75;;;24.23;53.25
51603;BME280;37954;51.980;5.850;2023-08-07T10:04:31;101226.75;;;24.60;50.04
51603;BME280;37954;51.980;5.850;2023-08-07T10:08:44;101221.25;;;25.02;49.58
51603;BME280;37954;51.980;5.850;2023-08-07T10:12:57;101241.88;;;25.26;48.43
51603;BME280;37954;51.980;5.850;2023-08-07T10:17:11;101238.38;;;24.71;47.82
51603;BME280;37954;51.980;5.850;2023-08-07T10:21:24;101247.66;;;23.64;49.46
51603;BME280;37954;51.980;5.850;2023-08-07T10:25:41;101241.72;;;23.19;50.99
51603;BME280;37954;51.980;5.850;2023-08-07T10:29:56;101257.88;;;22.78;51.60
51603;BME280;37954;51.980;5.850;2023-08-07T10:34:10;101230.59;;;21.81;52.74
51603;BME280;37954;51.980;5.850;2023-08-07T10:38:22;101254.84;;;21.59;53.96
51603;BME280;37954;51.980;5.850;2023-08-07T10:42:55;101280.13;;;21.31;56.27
51603;BME280;37954;51.980;5.850;2023-08-07T10:47:08;101272.88;;;21.01;57.93
51603;BME280;37954;51.980;5.850;2023-08-07T10:51:20;101268.00;;;21.52;59.09
51603;BME280;37954;51.980;5.850;2023-08-07T10:55:43;101283.03;;;21.94;58.59
51603;BME280;37954;51.980;5.850;2023-08-07T11:08:23;101264.53;;;23.15;54.76
51603;BME280;37954;51.980;5.850;2023-08-07T11:12:35;101274.50;;;23.67;52.34
51603;BME280;37954;51.980;5.850;2023-08-07T11:16:48;101287.97;;;24.34;51.48
51603;BME280;37954;51.980;5.850;2023-08-07T11:21:00;101280.06;;;24.59;49.34
51603;BME280;37954;51.980;5.850;2023-08-07T11:25:13;101282.59;;;24.42;46.95
51603;BME280;37954;51.980;5.850;2023-08-07T11:29:27;101278.03;;;23.49;47.44
51603;BME280;37954;51.980;5.850;2023-08-07T11:33:38;101287.66;;;22.85;49.52
51603;BME280;37954;51.980;5.850;2023-08-07T11:37:50;101286.84;;;22.55;50.05
51603;BME280;37954;51.980;5.850;2023-08-07T11:42:02;101282.16;;;22.32;50.80
51603;BME280;37954;51.980;5.850;2023-08-07T11:46:15;101286.63;;;22.76;51.74
51603;BME280;37954;51.980;5.850;2023-08-07T11:50:28;101278.00;;;22.35;51.55
51603;BME280;37954;51.980;5.850;2023-08-07T11:54:39;101284.25;;;21.77;52.89
51603;BME280;37954;51.980;5.850;2023-08-07T11:58:52;101292.06;;;21.50;54.16
51603;BME280;37954;51.980;5.850;2023-08-07T12:03:29;101294.25;;;22.55;54.40
51603;BME280;37954;51.980;5.850;2023-08-07T12:07:41;101291.75;;;23.30;51.23
51603;BME280;37954;51.980;5.850;2023-08-07T12:11:59;101297.13;;;23.59;48.98
51603;BME280;37954;51.980;5.850;2023-08-07T12:16:13;101299.31;;;23.94;48.21
51603;BME280;37954;51.980;5.850;2023-08-07T12:20:27;101310.53;;;24.31;47.77
51603;BME280;37954;51.980;5.850;2023-08-07T12:24:40;101303.81;;;24.69;46.82
51603;BME280;37954;51.980;5.850;2023-08-07T12:28:53;101298.31;;;24.55;46.42
51603;BME280;37954;51.980;5.850;2023-08-07T12:33:05;101289.63;;;24.16;46.67
51603;BME280;37954;51.980;5.850;2023-08-07T12:37:18;101281.22;;;23.93;47.26
51603;BME280;37954;51.980;5.850;2023-08-07T12:41:30;101285.28;;;23.40;46.11
51603;BME280;37954;51.980;5.850;2023-08-07T12:45:45;101299.56;;;22.99;46.60
51603;BME280;37954;51.980;5.850;2023-08-07T12:50:00;101310.50;;;22.99;46.59
51603;BME280;37954;51.980;5.850;2023-08-07T12:54:12;101316.88;;;22.95;45.70
51603;BME280;37954;51.980;5.850;2023-08-07T12:58:23;101300.38;;;22.71;45.99
51603;BME280;37954;51.980;5.850;2023-08-07T13:02:37;101294.31;;;22.79;47.74
51603;BME280;37954;51.980;5.850;2023-08-07T13:06:49;101299.66;;;22.89;48.69
51603;BME280;37954;51.980;5.850;2023-08-07T13:11:02;101291.91;;;22.96;47.67
51603;BME280;37954;51.980;5.850;2023-08-07T13:15:15;101296.66;;;23.09;47.79
51603;BME280;37954;51.980;5.850;2023-08-07T13:19:27;101293.19;;;22.80;46.11
51603;BME280;37954;51.980;5.850;2023-08-07T13:23:39;101305.56;;;22.77;46.39
51603;BME280;37954;51.980;5.850;2023-08-07T13:27:50;101290.03;;;22.68;46.47
51603;BME280;37954;51.980;5.850;2023-08-07T13:32:03;101276.50;;;22.76;47.58
51603;BME280;37954;51.980;5.850;2023-08-07T13:36:20;101291.72;;;22.64;46.46
51603;BME280;37954;51.980;5.850;2023-08-07T13:40:32;101305.50;;;22.25;46.03
51603;BME280;37954;51.980;5.850;2023-08-07T13:44:45;101309.69;;;21.78;45.67
51603;BME280;37954;51.980;5.850;2023-08-07T13:48:57;101315.38;;;21.37;46.56
51603;BME280;37954;51.980;5.850;2023-08-07T13:53:09;101307.53;;;21.15;47.34
51603;BME280;37954;51.980;5.850;2023-08-07T13:57:25;101319.56;;;21.19;48.11
51603;BME280;37954;51.980;5.850;2023-08-07T14:01:37;101323.88;;;21.31;48.61
51603;BME280;37954;51.980;5.850;2023-08-07T14:05:49;101306.84;;;21.49;48.21
51603;BME280;37954;51.980;5.850;2023-08-07T14:10:01;101312.19;;;21.69;47.06
51603;BME280;37954;51.980;5.850;2023-08-07T14:14:13;101316.00;;;21.73;46.78
51603;BME280;37954;51.980;5.850;2023-08-07T14:18:25;101306.94;;;21.78;47.00
51603;BME280;37954;51.980;5.850;2023-08-07T14:22:36;101313.44;;;21.87;46.41
51603;BME280;37954;51.980;5.850;2023-08-07T14:26:49;101314.34;;;21.77;47.03
51603;BME280;37954;51.980;5.850;2023-08-07T14:31:06;101329.84;;;21.87;47.36
51603;BME280;37954;51.980;5.850;2023-08-07T14:35:18;101335.97;;;21.69;45.31
51603;BME280;37954;51.980;5.850;2023-08-07T14:39:30;101330.09;;;21.46;45.88
51603;BME280;37954;51.980;5.850;2023-08-07T14:43:41;101338.69;;;21.25;45.13
51603;BME280;37954;51.980;5.850;2023-08-07T14:47:53;101340.34;;;21.05;45.13
51603;BME280;37954;51.980;5.850;2023-08-07T14:52:06;101333.25;;;20.99;46.07
51603;BME280;37954;51.980;5.850;2023-08-07T14:56:18;101337.91;;;20.99;46.05
51603;BME280;37954;51.980;5.850;2023-08-07T15:00:30;101349.09;;;21.02;46.74
51603;BME280;37954;51.980;5.850;2023-08-07T15:09:56;101334.34;;;20.98;46.40
51603;BME280;37954;51.980;5.850;2023-08-07T15:14:07;101357.63;;;20.80;46.83
51603;BME280;37954;51.980;5.850;2023-08-07T15:18:19;101348.09;;;20.63;47.25
51603;BME280;37954;51.980;5.850;2023-08-07T15:22:31;101351.41;;;20.49;47.57
51603;BME280;37954;51.980;5.850;2023-08-07T15:26:43;101334.19;;;20.49;47.69
51603;BME280;37954;51.980;5.850;2023-08-07T15:30:54;101353.59;;;20.53;47.32
51603;BME280;37954;51.980;5.850;2023-08-07T15:35:07;101362.28;;;20.65;48.07
51603;BME280;37954;51.980;5.850;2023-08-07T15:39:18;101359.03;;;20.58;48.71
51603;BME280;37954;51.980;5.850;2023-08-07T15:43:30;101358.19;;;20.67;48.89
51603;BME280;37954;51.980;5.850;2023-08-07T15:47:42;101351.38;;;20.70;48.92
51603;BME280;37954;51.980;5.850;2023-08-07T15:51:54;101354.41;;;20.48;49.08
51603;BME280;37954;51.980;5.850;2023-08-07T15:56:05;101362.03;;;20.36;49.60
51603;BME280;37954;51.980;5.850;2023-08-07T16:00:17;101364.47;;;20.27;50.29
51603;BME280;37954;51.980;5.850;2023-08-07T16:04:29;101367.50;;;20.26;51.43
51603;BME280;37954;51.980;5.850;2023-08-07T16:08:41;101365.84;;;20.20;51.79
51603;BME280;37954;51.980;5.850;2023-08-07T16:12:53;101366.66;;;20.20;52.58
51603;BME280;37954;51.980;5.850;2023-08-07T16:17:05;101365.53;;;20.01;54.89
51603;BME280;37954;51.980;5.850;2023-08-07T16:21:17;101360.06;;;19.96;56.63
51603;BME280;37954;51.980;5.850;2023-08-07T16:25:29;101363.09;;;19.99;58.16
51603;BME280;37954;51.980;5.850;2023-08-07T16:29:40;101362.00;;;20.10;57.86
51603;BME280;37954;51.980;5.850;2023-08-07T16:33:52;101348.84;;;19.77;58.29
51603;BME280;37954;51.980;5.850;2023-08-07T16:38:04;101356.75;;;19.68;58.53
51603;BME280;37954;51.980;5.850;2023-08-07T16:42:16;101357.53;;;19.54;59.16
51603;BME280;37954;51.980;5.850;2023-08-07T16:46:27;101362.13;;;19.48;59.33
51603;BME280;37954;51.980;5.850;2023-08-07T16:50:42;101353.91;;;19.43;59.36
51603;BME280;37954;51.980;5.850;2023-08-07T16:55:02;101347.66;;;19.37;60.02
51603;BME280;37954;51.980;5.850;2023-08-07T16:59:15;101343.22;;;19.26;59.93
51603;BME280;37954;51.980;5.850;2023-08-07T17:03:26;101341.56;;;19.25;59.83
51603;BME280;37954;51.980;5.850;2023-08-07T17:07:38;101347.28;;;19.19;60.60
51603;BME280;37954;51.980;5.850;2023-08-07T17:11:50;101343.41;;;19.04;60.64
51603;BME280;37954;51.980;5.850;2023-08-07T17:16:02;101342.03;;;19.02;60.64
51603;BME280;37954;51.980;5.850;2023-08-07T17:20:15;101350.47;;;19.00;61.20
51603;BME280;37954;51.980;5.850;2023-08-07T17:24:27;101345.50;;;18.92;61.84
51603;BME280;37954;51.980;5.850;2023-08-07T17:28:39;101342.00;;;18.97;61.87
51603;BME280;37954;51.980;5.850;2023-08-07T17:32:50;101322.38;;;18.95;61.49
51603;BME280;37954;51.980;5.850;2023-08-07T17:37:03;101315.06;;;19.05;61.84
51603;BME280;37954;51.980;5.850;2023-08-07T17:41:14;101336.03;;;19.00;61.29
51603;BME280;37954;51.980;5.850;2023-08-07T17:45:26;101318.25;;;18.82;61.37
51603;BME280;37954;51.980;5.850;2023-08-07T17:49:38;101332.59;;;18.67;61.60
51603;BME280;37954;51.980;5.850;2023-08-07T17:53:52;101315.78;;;18.43;61.73
51603;BME280;37954;51.980;5.850;2023-08-07T17:58:03;101319.53;;;18.37;62.35
51603;BME280;37954;51.980;5.850;2023-08-07T18:02:15;101330.34;;;18.27;62.63
51603;BME280;37954;51.980;5.850;2023-08-07T18:06:28;101312.22;;;18.06;63.53
51603;BME280;37954;51.980;5.850;2023-08-07T18:10:40;101309.41;;;17.96;64.28
51603;BME280;37954;51.980;5.850;2023-08-07T18:14:52;101309.94;;;17.93;64.54
51603;BME280;37954;51.980;5.850;2023-08-07T18:19:03;101312.13;;;17.96;64.85
51603;BME280;37954;51.980;5.850;2023-08-07T18:23:15;101300.56;;;17.79;65.72
51603;BME280;37954;51.980;5.850;2023-08-07T18:27:27;101309.16;;;17.70;65.91
51603;BME280;37954;51.980;5.850;2023-08-07T18:31:39;101313.00;;;17.74;65.95
51603;BME280;37954;51.980;5.850;2023-08-07T18:35:50;101292.69;;;17.55;66.90
51603;BME280;37954;51.980;5.850;2023-08-07T18:40:05;101294.00;;;17.53;66.98
51603;BME280;37954;51.980;5.850;2023-08-07T18:44:18;101299.94;;;17.50;67.04
51603;BME280;37954;51.980;5.850;2023-08-07T18:48:30;101296.13;;;17.46;67.26
51603;BME280;37954;51.980;5.850;2023-08-07T18:52:41;101292.19;;;17.36;67.63
51603;BME280;37954;51.980;5.850;2023-08-07T18:56:53;101291.84;;;17.28;67.89
51603;BME280;37954;51.980;5.850;2023-08-07T19:01:05;101299.09;;;17.22;68.20
51603;BME280;37954;51.980;5.850;2023-08-07T19:05:17;101298.78;;;17.19;68.70
51603;BME280;37954;51.980;5.850;2023-08-07T19:09:29;101279.81;;;16.97;69.21
51603;BME280;37954;51.980;5.850;2023-08-07T19:13:40;101275.63;;;16.89;69.26
51603;BME280;37954;51.980;5.850;2023-08-07T19:17:52;101286.41;;;16.84;69.85
51603;BME280;37954;51.980;5.850;2023-08-07T19:22:04;101290.16;;;16.78;69.99
51603;BME280;37954;51.980;5.850;2023-08-07T19:26:27;101292.69;;;16.68;70.54
51603;BME280;37954;51.980;5.850;2023-08-07T19:30:39;101294.66;;;16.56;70.95
51603;BME280;37954;51.980;5.850;2023-08-07T19:34:56;101284.81;;;16.50;71.10
51603;BME280;37954;51.980;5.850;2023-08-07T19:39:08;101287.13;;;16.41;71.68
51603;BME280;37954;51.980;5.850;2023-08-07T19:43:20;101283.19;;;16.32;72.13
51603;BME280;37954;51.980;5.850;2023-08-07T19:47:32;101289.69;;;16.31;72.29
51603;BME280;37954;51.980;5.850;2023-08-07T19:51:47;101283.53;;;16.19;72.56
51603;BME280;37954;51.980;5.850;2023-08-07T19:55:59;101292.72;;;16.18;72.91
51603;BME280;37954;51.980;5.850;2023-08-07T20:00:11;101282.63;;;16.13;73.22
51603;BME280;37954;51.980;5.850;2023-08-07T20:04:23;101287.56;;;16.16;73.50
51603;BME280;37954;51.980;5.850;2023-08-07T20:08:37;101282.38;;;16.15;73.70
51603;BME280;37954;51.980;5.850;2023-08-07T20:12:50;101273.34;;;16.09;73.74
51603;BME280;37954;51.980;5.850;2023-08-07T20:17:05;101269.41;;;16.00;73.95
51603;BME280;37954;51.980;5.850;2023-08-07T20:21:17;101262.00;;;15.95;74.30
51603;BME280;37954;51.980;5.850;2023-08-07T20:25:30;101256.28;;;15.92;74.32
51603;BME280;37954;51.980;5.850;2023-08-07T20:29:41;101254.88;;;15.89;74.89
51603;BME280;37954;51.980;5.850;2023-08-07T20:33:53;101261.34;;;15.88;74.75
51603;BME280;37954;51.980;5.850;2023-08-07T20:38:09;101262.75;;;15.91;75.07
51603;BME280;37954;51.980;5.850;2023-08-07T20:42:21;101260.53;;;15.88;75.13
51603;BME280;37954;51.980;5.850;2023-08-07T20:46:33;101242.88;;;15.85;75.37
51603;BME280;37954;51.980;5.850;2023-08-07T20:50:45;101248.16;;;15.92;75.50
51603;BME280;37954;51.980;5.850;2023-08-07T20:54:57;101234.16;;;16.00;75.52
51603;BME280;37954;51.980;5.850;2023-08-07T20:59:08;101244.75;;;16.18;75.69
51603;BME280;37954;51.980;5.850;2023-08-07T21:03:20;101229.88;;;16.21;75.46
51603;BME280;37954;51.980;5.850;2023-08-07T21:07:32;101222.91;;;16.25;75.83
51603;BME280;37954;51.980;5.850;2023-08-07T21:11:44;101222.34;;;16.23;75.86
51603;BME280;37954;51.980;5.850;2023-08-07T21:15:56;101208.31;;;16.09;75.99
51603;BME280;37954;51.980;5.850;2023-08-07T21:20:08;101207.31;;;15.98;76.07
51603;BME280;37954;51.980;5.850;2023-08-07T21:24:22;101201.41;;;15.85;76.39
51603;BME280;37954;51.980;5.850;2023-08-07T21:28:33;101192.56;;;15.73;76.54
51603;BME280;37954;51.980;5.850;2023-08-07T21:32:45;101202.00;;;15.70;77.11
51603;BME280;37954;51.980;5.850;2023-08-07T21:36:57;101191.41;;;15.69;77.70
51603;BME280;37954;51.980;5.850;2023-08-07T21:41:09;101192.31;;;15.74;78.28
51603;BME280;37954;51.980;5.850;2023-08-07T21:45:21;101202.47;;;15.84;78.67
51603;BME280;37954;51.980;5.850;2023-08-07T21:49:32;101191.41;;;15.85;79.06
51603;BME280;37954;51.980;5.850;2023-08-07T21:53:45;101194.00;;;15.97;79.15
51603;BME280;37954;51.980;5.850;2023-08-07T21:57:57;101174.06;;;16.03;79.53
51603;BME280;37954;51.980;5.850;2023-08-07T22:02:08;101170.63;;;16.08;79.70
51603;BME280;37954;51.980;5.850;2023-08-07T22:06:20;101169.59;;;16.14;80.08
51603;BME280;37954;51.980;5.850;2023-08-07T22:10:32;101167.47;;;16.16;80.41